Nearby METAR Reports

 

PAEN - Kenai, Alaska, USA
Distance from station: ESE 2mi, 4km
Updated: Thu, 29-Jul-2021 7:53am AKDT
Overcast
Overcast
 Wind from SW
Wind: SW 15 mph , 24 km/h
Temperature: 54°F , 12°C
Dew Point: 48°F , 9°C
Humidity: 82%
Barometer: 30.21 inHg , 1023 hPa
Clouds: Overcast
Visibility: 10 miles , 16 km
Cloud details: Few Clouds 800 ft
Overcast 3300 ft
2021/07/29 15:53 PAEN 291553Z 22013KT 10SM FEW008 OVC033 12/09 A3021 RMK AO2 SLP232 T01170089
PASX - Soldotna, Alaska, USA
Distance from station: SE 12mi, 19km
Updated: Thu, 29-Jul-2021 7:56am AKDT
Overcast
Overcast
 Wind from WSW
Wind: WSW 6 mph , 9 km/h
Temperature: 54°F , 12°C
Dew Point: 46°F , 8°C
Humidity: 77%
Barometer: 30.24 inHg , 1024 hPa
Clouds: Overcast
Visibility: 10 miles , 16 km
Cloud details: Overcast 3400 ft
2021/07/29 15:56 PASX 291556Z AUTO 25005KT 10SM OVC034 12/08 A3024 RMK AO2 SLP249 T01170078
 
PANC - Anchorage Intl, Alaska, USA
Distance from station: NE 59mi, 96km
Updated: Thu, 29-Jul-2021 7:53am AKDT
Light drizzle, Mist, Overcast
Light drizzle, Mist, Overcast
 Wind from calm
Wind: Calm
Temperature: 54°F , 12°C
Dew Point: 48°F , 9°C
Humidity: 82%
Barometer: 30.22 inHg , 1023.4 hPa
Summary: Light drizzle, Mist
Clouds: Overcast
Visibility: 3 miles , 5 km
Cloud details: Mostly cloudy 600 ft
Overcast 2000 ft
2021/07/29 15:53 PANC 291553Z 00000KT 3SM -DZ BR BKN006 OVC020 12/09 A3022 RMK AO2 SLP233 P0000 T01170094
PALH - Anchorage/Lake H, Alaska, USA
Distance from station: NE 61mi, 99km
Updated: Thu, 29-Jul-2021 7:53am AKDT
Mist, Overcast
Mist, Overcast
 Wind from NW
Wind: NW 5 mph , 7 km/h
Temperature: 52°F , 11°C
Dew Point: 50°F , 10°C
Humidity: 94%
Barometer: 30.23 inHg , 1023.7 hPa
Summary: Mist
Clouds: Overcast
Visibility: 4 miles , 6 km
Cloud details: Partly cloudy 800 ft
Overcast 1500 ft
2021/07/29 15:53 PALH 291553Z 32004KT 4SM BR SCT008 OVC015 11/10 A3023 RMK AO2 SLP236 T01110100
 
PAHO - Homer, Alaska, USA
Distance from station: S 66mi, 106km
Updated: Thu, 29-Jul-2021 7:53am AKDT
Clear
Clear
 Wind from calm
Wind: Calm
Temperature: 55°F , 13°C
Dew Point: 48°F , 9°C
Humidity: 77%
Barometer: 30.21 inHg , 1023 hPa
Clouds: Clear
Visibility: 10 miles , 16 km
2021/07/29 15:53 PAHO 291553Z 00000KT 10SM CLR 13/09 A3021 RMK AO2 SLP232 T01280094
PAMR - Anchorage/Merril, Alaska, USA
Distance from station: NE 66mi, 106km
Updated: Thu, 29-Jul-2021 6:53am AKDT
NOT Current
Overcast
Overcast
 Wind from WSW
Wind: WSW 3 mph , 6 km/h
Temperature: 54°F , 12°C
Dew Point: 48°F , 9°C
Humidity: 82%
Barometer: 30.21 inHg , 1023 hPa
Clouds: Overcast
Visibility: 8 miles , 13 km
Cloud details: Mostly cloudy 1000 ft
Overcast 1800 ft
2021/07/29 14:53 PAMR 291453Z 25003KT 8SM BKN010 OVC018 12/09 A3021 RMK SLP230 60000 T01170089 57001
 
PAED - Elmendorf Afb, Alaska, USA
Distance from station: NE 69mi, 110km
Updated: Thu, 29-Jul-2021 7:56am AKDT
Light drizzle, Mist, Overcast
Light drizzle, Mist, Overcast
 Wind from calm
Wind: Calm
Temperature: 52°F , 11°C
Dew Point: 52°F , 11°C
Humidity: 100%
Barometer: 30.21 inHg , 1023 hPa
Summary: Light drizzle, Mist
Clouds: Overcast
Visibility: 4 miles , 6 km
Cloud details: Partly cloudy 400 ft
Mostly cloudy 500 ft
Overcast 1000 ft
2021/07/29 15:56 PAED 291556Z 00000KT 4SM -DZ BR SCT004 BKN005 OVC010 11/11 A3021 RMK AO2A VIS 2 1/4 RWY34 SLP226 T01110105 $
PAWD - Seward, Alaska, USA
Distance from station: ESE 71mi, 115km
Updated: Thu, 29-Jul-2021 7:53am AKDT
Overcast
Overcast
 Wind from calm
Wind: Calm
Temperature: 55°F , 13°C
Dew Point: 52°F , 11°C
Humidity: 88%
Barometer: 30.20 inHg , 1022.7 hPa
Clouds: Overcast
Visibility: 10 miles , 16 km
Cloud details: Few Clouds 1300 ft
Mostly cloudy 3400 ft
Overcast 4600 ft
2021/07/29 15:53 PAWD 291553Z AUTO 00000KT 10SM FEW013 BKN034 OVC046 13/11 A3020 RMK AO2 SLP227 T01280106 TSNO
 
PASC - Deadhorse, Alaska, USA
Distance from station: ENE 670mi, 1078km
Updated: Thu, 29-Jul-2021 7:53am AKDT
Overcast
Overcast
 Wind from SW
Wind: SW 10 mph , 17 km/h
Temperature: 57°F , 14°C
Dew Point: 52°F , 11°C
Humidity: 82%
Barometer: 29.71 inHg , 1006.1 hPa
Clouds: Overcast
Visibility: 10 miles , 16 km
Cloud details: Few Clouds 7000 ft
Overcast 9000 ft
2021/07/29 15:53 PASC 291553Z 22009KT 10SM FEW070 OVC090 14/11 A2971 RMK AO2 SLP061 T01390111 $
PAAD - Point Thomson, Alaska, USA
Distance from station: ENE 680mi, 1094km
Updated: Thu, 29-Jul-2021 8:15am AKDT
Overcast
Overcast
 Wind from S
Wind: S 6 mph , 9 km/h
Temperature: 59°F , 15°C
Dew Point: 55°F , 13°C
Humidity: 88%
Barometer: 29.73 inHg , 1006.8 hPa
Clouds: Overcast
Visibility: 10 miles , 16 km
Cloud details: Mostly cloudy 7500 ft
Overcast 8500 ft
2021/07/29 16:15 PAAD 291615Z AUTO 19005KT 10SM BKN075 OVC085 15/13 A2973 RMK AO2 T01460125 PWINO


kenaipeople.com website

Dans Automotive

Lower Peninsula Power Sports

Freddies RoadHouse

Alaska Weather Net